createdAt,value
2023-03-17T00:00:26.462Z,100639.38
2023-03-17T00:03:31.107Z,100634.91
2023-03-17T00:06:34.086Z,100636.63
2023-03-17T00:09:37.312Z,100644.53
2023-03-17T00:12:41.405Z,100640.75
2023-03-17T00:15:46.244Z,100638.66
2023-03-17T00:18:51.656Z,100635.06
2023-03-17T00:21:56.938Z,100629.47
2023-03-17T00:25:00.093Z,100636.50
2023-03-17T00:28:19.413Z,100638.00
2023-03-17T00:31:25.740Z,100633.63
2023-03-17T00:34:28.906Z,100627.34
2023-03-17T00:37:31.943Z,100619.31
2023-03-17T00:40:35.133Z,100632.66
2023-03-17T00:43:39.140Z,100626.22
2023-03-17T00:46:42.671Z,100624.13
2023-03-17T00:49:47.626Z,100627.91
2023-03-17T00:52:53.463Z,100631.09
2023-03-17T00:55:56.515Z,100627.16
2023-03-17T00:59:00.949Z,100614.44
2023-03-17T01:02:03.837Z,100626.59
2023-03-17T01:05:07.278Z,100618.69
2023-03-17T01:08:10.551Z,100617.44
2023-03-17T01:11:19.320Z,100626.87
2023-03-17T01:14:24.903Z,100627.09
2023-03-17T01:17:29.198Z,100622.78
2023-03-17T01:20:33.418Z,100621.34
2023-03-17T01:23:37.485Z,100624.50
2023-03-17T01:26:40.579Z,100623.03
2023-03-17T01:29:43.964Z,100628.09
2023-03-17T01:32:47.137Z,100635.25
2023-03-17T01:35:51.029Z,100627.16
2023-03-17T01:38:54.073Z,100619.31
2023-03-17T01:42:01.469Z,100606.50
2023-03-17T01:45:08.464Z,100618.31
2023-03-17T01:48:12.228Z,100618.06
2023-03-17T01:51:19.930Z,100613.91
2023-03-17T01:54:36.306Z,100624.38
2023-03-17T01:57:51.495Z,100628.84
2023-03-17T02:00:57.170Z,100641.00
2023-03-17T02:04:01.121Z,100640.63
2023-03-17T02:07:05.301Z,100639.94
2023-03-17T02:10:10.316Z,100650.66
2023-03-17T02:13:14.154Z,100659.31
2023-03-17T02:16:18.016Z,100652.16
2023-03-17T02:19:23.404Z,100661.81
2023-03-17T02:22:26.597Z,100660.25
2023-03-17T02:25:30.897Z,100657.41
2023-03-17T02:28:34.532Z,100652.38
2023-03-17T02:31:38.047Z,100648.91
2023-03-17T02:34:40.963Z,100653.47
2023-03-17T02:37:44.284Z,100654.75
2023-03-17T02:40:47.233Z,100652.88
2023-03-17T02:43:52.195Z,100651.22
2023-03-17T02:46:56.749Z,100648.03
2023-03-17T02:50:00.504Z,100648.34
2023-03-17T02:53:03.392Z,100647.78
2023-03-17T02:56:07.715Z,100644.59
2023-03-17T02:59:10.704Z,100644.03
2023-03-17T03:02:15.137Z,100639.53
2023-03-17T03:05:18.652Z,100638.22
2023-03-17T03:08:22.494Z,100644.88
2023-03-17T03:11:25.595Z,100643.84
2023-03-17T03:14:28.933Z,100644.34
2023-03-17T03:17:31.897Z,100644.88
2023-03-17T03:20:35.107Z,100641.41
2023-03-17T03:23:38.165Z,100644.63
2023-03-17T03:26:41.504Z,100644.19
2023-03-17T03:29:44.507Z,100647.72
2023-03-17T03:32:47.941Z,100641.91
2023-03-17T03:35:50.897Z,100640.16
2023-03-17T03:38:55.652Z,100630.31
2023-03-17T03:41:58.714Z,100633.78
2023-03-17T03:45:02.971Z,100626.59
2023-03-17T03:48:06.237Z,100635.38
2023-03-17T03:51:09.457Z,100639.94
2023-03-17T03:54:12.411Z,100645.19
2023-03-17T03:57:15.921Z,100644.88
2023-03-17T04:00:19.832Z,100639.59
2023-03-17T04:03:23.076Z,100641.97
2023-03-17T04:06:26.033Z,100638.47
2023-03-17T04:09:29.241Z,100644.34
2023-03-17T04:12:32.525Z,100641.34
2023-03-17T04:15:35.954Z,100631.75
2023-03-17T04:18:38.966Z,100635.78
2023-03-17T04:21:43.486Z,100644.88
2023-03-17T04:24:46.366Z,100634.25
2023-03-17T04:27:51.097Z,100638.06
2023-03-17T04:30:54.010Z,100648.00
2023-03-17T04:33:57.244Z,100655.03
2023-03-17T04:37:00.247Z,100648.75
2023-03-17T04:40:04.063Z,100651.47
2023-03-17T04:43:07.334Z,100646.47
2023-03-17T04:46:11.123Z,100648.84
2023-03-17T04:49:14.060Z,100651.25
2023-03-17T04:52:17.328Z,100651.44
2023-03-17T04:55:20.949Z,100654.75
2023-03-17T04:58:30.766Z,100649.12
2023-03-17T05:01:34.171Z,100649.78
2023-03-17T05:04:37.887Z,100656.00
2023-03-17T05:07:41.698Z,100660.72
2023-03-17T05:10:44.935Z,100651.72
2023-03-17T05:13:48.721Z,100660.25
2023-03-17T05:16:52.205Z,100658.09
2023-03-17T05:19:55.933Z,100657.06
2023-03-17T05:22:59.825Z,100650.50
2023-03-17T05:26:03.457Z,100653.16
2023-03-17T05:29:09.110Z,100649.44
2023-03-17T05:32:13.625Z,100651.84
2023-03-17T05:35:19.023Z,100658.13
2023-03-17T05:38:23.269Z,100651.94
2023-03-17T05:41:29.917Z,100648.34
2023-03-17T05:44:32.935Z,100652.88
2023-03-17T05:47:36.830Z,100648.75
2023-03-17T05:50:40.296Z,100656.00
2023-03-17T05:53:43.644Z,100652.91
2023-03-17T05:56:46.831Z,100665.03
2023-03-17T05:59:51.030Z,100662.44
2023-03-17T06:02:54.125Z,100658.50
2023-03-17T06:05:57.681Z,100661.16
2023-03-17T06:09:01.301Z,100664.37
2023-03-17T06:12:05.191Z,100666.97
2023-03-17T06:15:09.912Z,100670.56
2023-03-17T06:18:13.057Z,100672.56
2023-03-17T06:21:16.445Z,100672.38
2023-03-17T06:24:19.634Z,100673.78
2023-03-17T06:27:22.924Z,100673.97
2023-03-17T06:30:26.259Z,100671.50
2023-03-17T06:33:30.193Z,100678.00
2023-03-17T06:36:33.916Z,100682.47
2023-03-17T06:39:37.585Z,100679.44
2023-03-17T06:42:40.835Z,100695.53
2023-03-17T06:45:43.744Z,100696.25
2023-03-17T06:48:46.993Z,100689.16
2023-03-17T06:51:49.927Z,100692.53
2023-03-17T06:54:53.120Z,100698.75
2023-03-17T06:57:56.145Z,100697.34
2023-03-17T07:01:00.475Z,100701.66
2023-03-17T07:04:03.401Z,100703.16
2023-03-17T07:07:06.763Z,100698.81
2023-03-17T07:10:12.564Z,100706.41
2023-03-17T07:13:16.385Z,100708.28
2023-03-17T07:16:21.494Z,100713.34
2023-03-17T07:19:24.626Z,100708.22
2023-03-17T07:22:28.586Z,100717.12
2023-03-17T07:25:32.010Z,100714.94
2023-03-17T07:28:35.200Z,100709.06
2023-03-17T07:31:38.786Z,100712.16
2023-03-17T07:34:41.865Z,100717.06
2023-03-17T07:37:45.069Z,100713.16
2023-03-17T07:40:49.120Z,100712.78
2023-03-17T07:43:52.471Z,100724.38
2023-03-17T07:46:55.882Z,100715.69
2023-03-17T07:49:59.019Z,100712.56
2023-03-17T07:53:03.264Z,100716.50
2023-03-17T07:56:10.819Z,100716.50
2023-03-17T07:59:14.094Z,100706.06
2023-03-17T08:02:18.813Z,100706.56
2023-03-17T08:05:22.300Z,100709.69
2023-03-17T08:08:26.473Z,100702.72
2023-03-17T08:11:30.026Z,100709.19
2023-03-17T08:14:33.534Z,100700.31
2023-03-17T08:17:37.411Z,100696.03
2023-03-17T08:20:40.892Z,100696.59
2023-03-17T08:23:44.300Z,100695.72
2023-03-17T08:26:50.535Z,100690.56
2023-03-17T08:29:53.767Z,100698.50
2023-03-17T08:32:56.910Z,100692.41
2023-03-17T08:36:00.441Z,100697.47
2023-03-17T08:39:04.908Z,100688.94
2023-03-17T08:42:08.398Z,100689.16
2023-03-17T08:45:12.838Z,100688.19
2023-03-17T08:48:16.202Z,100679.69
2023-03-17T08:51:22.140Z,100682.38
2023-03-17T08:54:26.699Z,100691.13
2023-03-17T08:57:29.611Z,100683.03
2023-03-17T09:00:33.152Z,100693.63
2023-03-17T09:03:38.662Z,100693.03
2023-03-17T09:07:01.337Z,100694.03
2023-03-17T09:10:07.283Z,100682.56
2023-03-17T09:13:10.643Z,100684.94
2023-03-17T09:16:14.817Z,100684.47
2023-03-17T09:19:18.232Z,100697.00
2023-03-17T09:22:21.334Z,100696.00
2023-03-17T09:25:25.149Z,100697.19
2023-03-17T09:28:29.309Z,100696.62
2023-03-17T09:31:33.995Z,100695.09
2023-03-17T09:34:37.039Z,100689.50
2023-03-17T09:37:40.261Z,100678.81
2023-03-17T09:41:13.162Z,100680.53
2023-03-17T09:44:27.194Z,100679.53
2023-03-17T09:48:10.045Z,100670.75
2023-03-17T09:51:14.705Z,100668.84
2023-03-17T09:54:29.637Z,100657.09
2023-03-17T09:57:38.448Z,100661.59
2023-03-17T10:00:41.691Z,100664.97
2023-03-17T10:03:45.241Z,100659.75
2023-03-17T10:06:49.729Z,100650.37
2023-03-17T10:10:03.213Z,100649.03
2023-03-17T10:13:42.439Z,100650.78
2023-03-17T10:17:04.477Z,100648.56
2023-03-17T10:20:11.843Z,100639.66
2023-03-17T10:23:17.765Z,100642.97
2023-03-17T10:26:42.706Z,100639.12
2023-03-17T10:29:48.515Z,100640.72
2023-03-17T10:32:53.063Z,100630.81
2023-03-17T10:35:57.173Z,100635.59
2023-03-17T10:39:05.365Z,100637.63
2023-03-17T10:42:11.435Z,100634.66
2023-03-17T10:45:34.987Z,100635.12
2023-03-17T10:48:40.102Z,100634.94
2023-03-17T10:51:46.476Z,100627.00
2023-03-17T10:54:53.501Z,100624.53
2023-03-17T10:58:06.121Z,100611.69
2023-03-17T11:01:29.347Z,100609.97
2023-03-17T11:04:35.861Z,100606.81
2023-03-17T11:07:41.075Z,100591.81
2023-03-17T11:10:44.979Z,100588.19
2023-03-17T11:13:48.994Z,100582.16
2023-03-17T11:16:59.219Z,100588.25
2023-03-17T11:20:13.891Z,100581.62
2023-03-17T11:23:23.765Z,100572.09
2023-03-17T11:26:45.730Z,100577.31
2023-03-17T11:30:05.362Z,100558.94
2023-03-17T11:33:09.358Z,100563.63
2023-03-17T11:37:00.239Z,100550.75
2023-03-17T11:40:15.900Z,100536.94
2023-03-17T11:43:19.171Z,100529.47
2023-03-17T11:46:41.098Z,100521.94
2023-03-17T11:49:46.211Z,100521.72
2023-03-17T11:52:56.468Z,100519.75
2023-03-17T11:56:29.053Z,100510.28
2023-03-17T11:59:58.802Z,100504.31
2023-03-17T12:03:18.331Z,100495.22
2023-03-17T12:06:25.839Z,100502.50
2023-03-17T12:09:37.424Z,100501.09
2023-03-17T12:12:44.688Z,100482.44
2023-03-17T12:15:56.880Z,100486.81
2023-03-17T12:19:09.871Z,100483.66
2023-03-17T12:22:26.341Z,100487.16
2023-03-17T12:25:36.558Z,100486.34
2023-03-17T12:28:50.208Z,100482.50
2023-03-17T12:32:03.887Z,100486.03
2023-03-17T12:35:35.029Z,100467.44
2023-03-17T12:38:44.356Z,100458.28
2023-03-17T12:42:11.782Z,100460.91
2023-03-17T12:45:53.239Z,100477.44
2023-03-17T12:49:06.845Z,100459.38
2023-03-17T12:52:22.097Z,100452.44
2023-03-17T12:55:27.436Z,100462.97
2023-03-17T12:58:38.699Z,100454.78
2023-03-17T13:01:46.080Z,100461.03
2023-03-17T13:04:57.968Z,100449.75
2023-03-17T13:08:05.730Z,100436.34
2023-03-17T13:11:20.197Z,100438.44
2023-03-17T13:14:41.394Z,100436.00
2023-03-17T13:17:45.556Z,100449.91
2023-03-17T13:20:57.678Z,100450.66
2023-03-17T13:24:16.167Z,100452.31
2023-03-17T13:27:32.308Z,100449.28
2023-03-17T13:30:35.732Z,100450.69
2023-03-17T13:33:46.641Z,100440.53
2023-03-17T13:37:33.289Z,100447.00
2023-03-17T13:40:36.288Z,100440.03
2023-03-17T13:44:05.642Z,100436.72
2023-03-17T13:47:25.509Z,100431.97
2023-03-17T13:50:33.037Z,100430.47
2023-03-17T13:53:47.198Z,100418.25
2023-03-17T13:56:51.445Z,100412.97
2023-03-17T14:00:15.913Z,100402.66
2023-03-17T14:03:40.318Z,100387.28
2023-03-17T14:06:45.284Z,100382.53
2023-03-17T14:09:53.999Z,100386.50
2023-03-17T14:13:26.414Z,100394.59
2023-03-17T14:16:36.582Z,100388.81
2023-03-17T14:19:41.958Z,100381.34
2023-03-17T14:22:47.831Z,100368.41
2023-03-17T14:25:51.483Z,100366.94
2023-03-17T14:28:55.799Z,100366.47
2023-03-17T14:32:16.023Z,100363.13
2023-03-17T14:35:20.060Z,100362.06
2023-03-17T14:38:31.759Z,100361.75
2023-03-17T14:41:36.250Z,100350.31
2023-03-17T14:44:41.483Z,100356.53
2023-03-17T14:47:44.823Z,100358.03
2023-03-17T14:50:55.622Z,100353.91
2023-03-17T14:54:01.421Z,100350.19
2023-03-17T14:57:08.753Z,100350.56
2023-03-17T15:00:18.808Z,100351.22
2023-03-17T15:03:24.328Z,100335.31
2023-03-17T15:06:31.257Z,100321.16
2023-03-17T15:09:34.177Z,100315.75
2023-03-17T15:12:37.636Z,100306.25
2023-03-17T15:15:41.812Z,100311.84
2023-03-17T15:18:45.619Z,100306.47
2023-03-17T15:21:49.048Z,100309.44
2023-03-17T15:25:03.614Z,100317.91
2023-03-17T15:28:18.418Z,100311.09
2023-03-17T15:31:28.462Z,100301.97
2023-03-17T15:34:31.548Z,100298.22
2023-03-17T15:37:35.670Z,100300.28
2023-03-17T15:40:40.761Z,100299.19
2023-03-17T15:43:45.517Z,100308.75
2023-03-17T15:46:48.897Z,100303.34
2023-03-17T15:49:56.372Z,100300.47
2023-03-17T15:52:59.340Z,100292.44
2023-03-17T15:56:03.704Z,100291.59
2023-03-17T15:59:06.681Z,100295.03
2023-03-17T16:02:29.854Z,100297.69
2023-03-17T16:05:34.504Z,100303.19
2023-03-17T16:08:38.621Z,100291.16
2023-03-17T16:11:41.946Z,100289.78
2023-03-17T16:14:45.791Z,100292.62
2023-03-17T16:17:50.688Z,100290.53
2023-03-17T16:20:54.384Z,100298.34
2023-03-17T16:23:58.506Z,100299.75
2023-03-17T16:27:01.160Z,100295.94
2023-03-17T16:30:06.202Z,100303.16
2023-03-17T16:33:17.296Z,100304.84
2023-03-17T16:36:23.400Z,100304.72
2023-03-17T16:39:26.465Z,100307.97
2023-03-17T16:42:32.172Z,100306.81
2023-03-17T16:45:35.305Z,100310.31
2023-03-17T16:48:39.500Z,100305.00
2023-03-17T16:51:43.336Z,100305.34
2023-03-17T16:54:46.464Z,100308.37
2023-03-17T16:57:51.684Z,100303.25
2023-03-17T17:01:00.328Z,100295.59
2023-03-17T17:04:03.304Z,100289.88
2023-03-17T17:07:06.538Z,100303.97
2023-03-17T17:10:12.198Z,100311.94
2023-03-17T17:13:16.192Z,100319.16
2023-03-17T17:16:34.718Z,100313.53
2023-03-17T17:19:41.404Z,100319.97
2023-03-17T17:22:46.152Z,100303.06
2023-03-17T17:25:51.283Z,100299.56
2023-03-17T17:28:55.081Z,100309.00
2023-03-17T17:32:05.051Z,100311.94
2023-03-17T17:35:10.463Z,100300.97
2023-03-17T17:38:28.942Z,100298.50
2023-03-17T17:41:34.123Z,100304.38
2023-03-17T17:44:38.801Z,100297.41
2023-03-17T17:47:44.331Z,100303.44
2023-03-17T17:50:50.121Z,100306.00
2023-03-17T17:53:56.576Z,100311.87
2023-03-17T17:57:00.908Z,100316.75
2023-03-17T18:00:07.431Z,100308.53
2023-03-17T18:03:12.346Z,100306.75
2023-03-17T18:06:18.449Z,100304.72
2023-03-17T18:09:24.212Z,100317.09
2023-03-17T18:12:29.116Z,100314.84
2023-03-17T18:15:33.562Z,100308.53
2023-03-17T18:18:42.850Z,100317.09
2023-03-17T18:21:48.835Z,100311.03
2023-03-17T18:24:53.946Z,100309.81
2023-03-17T18:27:58.222Z,100310.59
2023-03-17T18:31:24.816Z,100309.22
2023-03-17T18:34:36.190Z,100307.53
2023-03-17T18:37:42.505Z,100308.44
2023-03-17T18:40:47.189Z,100302.03
2023-03-17T18:43:52.444Z,100310.91
2023-03-17T18:46:56.570Z,100313.50
2023-03-17T18:50:01.845Z,100313.59
2023-03-17T18:53:05.332Z,100315.16
2023-03-17T18:56:11.331Z,100320.91
2023-03-17T18:59:16.161Z,100315.28
2023-03-17T19:02:21.004Z,100311.44
2023-03-17T19:05:27.627Z,100311.69
2023-03-17T19:08:32.474Z,100312.13
2023-03-17T19:11:37.171Z,100307.94
2023-03-17T19:14:42.112Z,100306.50
2023-03-17T19:17:48.319Z,100310.75
2023-03-17T19:20:53.194Z,100309.19
2023-03-17T19:23:59.903Z,100316.94
2023-03-17T19:27:05.813Z,100302.75
2023-03-17T19:30:10.832Z,100299.84
2023-03-17T19:33:16.618Z,100291.50
2023-03-17T19:36:20.753Z,100290.25
2023-03-17T19:39:30.172Z,100283.78
2023-03-17T19:42:35.892Z,100281.94
2023-03-17T19:45:43.069Z,100278.38
2023-03-17T19:48:48.473Z,100290.12
2023-03-17T19:51:52.633Z,100284.53
2023-03-17T19:54:59.803Z,100277.13
2023-03-17T19:58:06.274Z,100282.88
2023-03-17T20:01:11.120Z,100279.16
2023-03-17T20:04:20.174Z,100281.06
2023-03-17T20:07:25.300Z,100274.22
2023-03-17T20:10:30.130Z,100274.75
2023-03-17T20:13:36.594Z,100274.31
2023-03-17T20:16:42.649Z,100269.81
2023-03-17T20:19:47.703Z,100272.41
2023-03-17T20:22:52.449Z,100265.06
2023-03-17T20:25:57.725Z,100269.12
2023-03-17T20:29:02.373Z,100263.28
2023-03-17T20:32:07.458Z,100264.81
2023-03-17T20:35:15.401Z,100258.75
2023-03-17T20:38:19.659Z,100263.16
2023-03-17T20:41:25.715Z,100259.12
2023-03-17T20:44:29.615Z,100253.75
2023-03-17T20:47:34.047Z,100261.81
2023-03-17T20:50:39.304Z,100256.25
2023-03-17T20:53:47.394Z,100250.63
2023-03-17T20:56:56.480Z,100250.34
2023-03-17T21:00:01.504Z,100250.59
2023-03-17T21:03:07.233Z,100240.66
2023-03-17T21:06:23.051Z,100235.38
2023-03-17T21:09:28.972Z,100239.00
2023-03-17T21:12:33.280Z,100228.03
2023-03-17T21:15:36.812Z,100225.91
2023-03-17T21:18:40.969Z,100231.50
2023-03-17T21:21:47.021Z,100223.16
2023-03-17T21:24:51.137Z,100229.72
2023-03-17T21:27:54.173Z,100231.72
2023-03-17T21:30:58.669Z,100235.00
2023-03-17T21:34:02.466Z,100234.59
2023-03-17T21:37:07.967Z,100236.75
2023-03-17T21:40:13.147Z,100235.19
2023-03-17T21:43:16.622Z,100239.91
2023-03-17T21:46:20.154Z,100238.22
2023-03-17T21:49:24.902Z,100239.50
2023-03-17T21:52:27.989Z,100236.16
2023-03-17T21:55:32.316Z,100238.41
2023-03-17T21:58:35.621Z,100235.56
2023-03-17T22:01:39.781Z,100241.59
2023-03-17T22:04:45.263Z,100237.41
2023-03-17T22:07:48.520Z,100245.66
2023-03-17T22:10:52.223Z,100247.31
2023-03-17T22:13:55.955Z,100244.66
2023-03-17T22:16:59.193Z,100243.50
2023-03-17T22:20:02.304Z,100239.63
2023-03-17T22:23:05.547Z,100246.12
2023-03-17T22:26:19.296Z,100235.06
2023-03-17T22:29:22.517Z,100240.59
2023-03-17T22:32:25.529Z,100245.16
2023-03-17T22:35:28.864Z,100240.91
2023-03-17T22:38:32.119Z,100232.84
2023-03-17T22:41:35.348Z,100239.66
2023-03-17T22:44:39.172Z,100231.13
2023-03-17T22:47:42.615Z,100237.63
2023-03-17T22:50:45.708Z,100235.75
2023-03-17T22:53:50.014Z,100221.38
2023-03-17T22:56:53.636Z,100230.09
2023-03-17T22:59:58.688Z,100235.16
2023-03-17T23:03:02.406Z,100237.72
2023-03-17T23:06:07.637Z,100229.19
2023-03-17T23:09:11.605Z,100231.53
2023-03-17T23:12:14.909Z,100229.84
2023-03-17T23:15:18.987Z,100223.53
2023-03-17T23:18:22.592Z,100224.31
2023-03-17T23:21:31.123Z,100235.53
2023-03-17T23:24:34.478Z,100231.91
2023-03-17T23:27:37.490Z,100232.69
2023-03-17T23:30:41.529Z,100232.84
2023-03-17T23:33:44.491Z,100233.63
2023-03-17T23:36:48.544Z,100224.81
2023-03-17T23:39:51.499Z,100231.09
2023-03-17T23:42:55.286Z,100228.44
2023-03-17T23:45:58.472Z,100226.84
2023-03-17T23:49:01.711Z,100228.75
2023-03-17T23:52:04.913Z,100234.44
2023-03-17T23:55:10.225Z,100219.28
2023-03-17T23:58:15.784Z,100216.59
